sensor_id;sensor_type;location;lat;lon;timestamp;P1;durP1;ratioP1;P2;durP2;ratioP2
5295;SDS011;2670;42.720;23.336;2022-12-10T00:01:31;19.20;;;9.10;;
5295;SDS011;2670;42.720;23.336;2022-12-10T00:03:59;19.53;;;8.40;;
5295;SDS011;2670;42.720;23.336;2022-12-10T00:06:27;26.13;;;8.70;;
5295;SDS011;2670;42.720;23.336;2022-12-10T00:08:54;16.47;;;8.63;;
5295;SDS011;2670;42.720;23.336;2022-12-10T00:11:22;20.93;;;8.70;;
5295;SDS011;2670;42.720;23.336;2022-12-10T00:13:49;19.67;;;8.70;;
5295;SDS011;2670;42.720;23.336;2022-12-10T00:16:18;22.43;;;10.27;;
5295;SDS011;2670;42.720;23.336;2022-12-10T00:18:48;19.93;;;8.53;;
5295;SDS011;2670;42.720;23.336;2022-12-10T00:21:17;21.10;;;8.00;;
5295;SDS011;2670;42.720;23.336;2022-12-10T00:23:45;16.43;;;7.27;;
5295;SDS011;2670;42.720;23.336;2022-12-10T00:26:13;15.23;;;8.17;;
5295;SDS011;2670;42.720;23.336;2022-12-10T00:28:43;28.03;;;8.00;;
5295;SDS011;2670;42.720;23.336;2022-12-10T00:31:10;17.63;;;7.73;;
5295;SDS011;2670;42.720;23.336;2022-12-10T00:33:39;21.10;;;6.80;;
5295;SDS011;2670;42.720;23.336;2022-12-10T00:36:09;17.37;;;8.33;;
5295;SDS011;2670;42.720;23.336;2022-12-10T00:38:38;21.70;;;7.83;;
5295;SDS011;2670;42.720;23.336;2022-12-10T00:41:05;20.93;;;8.37;;
5295;SDS011;2670;42.720;23.336;2022-12-10T00:43:32;19.63;;;8.53;;
5295;SDS011;2670;42.720;23.336;2022-12-10T00:46:00;18.37;;;7.87;;
5295;SDS011;2670;42.720;23.336;2022-12-10T00:48:27;22.43;;;8.93;;
5295;SDS011;2670;42.720;23.336;2022-12-10T00:50:54;21.40;;;8.40;;
5295;SDS011;2670;42.720;23.336;2022-12-10T00:53:24;18.40;;;8.83;;
5295;SDS011;2670;42.720;23.336;2022-12-10T00:55:52;20.43;;;7.73;;
5295;SDS011;2670;42.720;23.336;2022-12-10T00:58:19;27.97;;;8.47;;
5295;SDS011;2670;42.720;23.336;2022-12-10T01:00:46;18.23;;;7.30;;
5295;SDS011;2670;42.720;23.336;2022-12-10T01:03:13;17.23;;;7.40;;
5295;SDS011;2670;42.720;23.336;2022-12-10T01:05:40;31.10;;;8.17;;
5295;SDS011;2670;42.720;23.336;2022-12-10T01:08:07;23.97;;;8.80;;
5295;SDS011;2670;42.720;23.336;2022-12-10T01:10:35;22.00;;;7.87;;
5295;SDS011;2670;42.720;23.336;2022-12-10T01:13:02;23.80;;;7.83;;
5295;SDS011;2670;42.720;23.336;2022-12-10T01:15:29;17.00;;;6.97;;
5295;SDS011;2670;42.720;23.336;2022-12-10T01:17:56;21.17;;;7.40;;
5295;SDS011;2670;42.720;23.336;2022-12-10T01:20:23;23.67;;;7.60;;
5295;SDS011;2670;42.720;23.336;2022-12-10T01:22:49;13.57;;;7.50;;
5295;SDS011;2670;42.720;23.336;2022-12-10T01:25:16;17.67;;;9.50;;
5295;SDS011;2670;42.720;23.336;2022-12-10T01:27:44;14.70;;;8.20;;
5295;SDS011;2670;42.720;23.336;2022-12-10T01:30:11;19.40;;;8.07;;
5295;SDS011;2670;42.720;23.336;2022-12-10T01:32:38;11.00;;;6.40;;
5295;SDS011;2670;42.720;23.336;2022-12-10T01:35:06;18.53;;;6.80;;
5295;SDS011;2670;42.720;23.336;2022-12-10T01:37:33;15.60;;;7.00;;
5295;SDS011;2670;42.720;23.336;2022-12-10T01:40:00;18.77;;;6.60;;
5295;SDS011;2670;42.720;23.336;2022-12-10T01:42:26;13.33;;;6.90;;
5295;SDS011;2670;42.720;23.336;2022-12-10T01:44:57;16.53;;;7.83;;
5295;SDS011;2670;42.720;23.336;2022-12-10T01:47:26;18.50;;;7.53;;
5295;SDS011;2670;42.720;23.336;2022-12-10T01:49:53;13.13;;;7.40;;
5295;SDS011;2670;42.720;23.336;2022-12-10T01:52:20;24.20;;;8.50;;
5295;SDS011;2670;42.720;23.336;2022-12-10T01:54:46;15.40;;;7.33;;
5295;SDS011;2670;42.720;23.336;2022-12-10T01:57:14;16.80;;;6.87;;
5295;SDS011;2670;42.720;23.336;2022-12-10T01:59:42;19.03;;;6.97;;
5295;SDS011;2670;42.720;23.336;2022-12-10T02:02:14;17.47;;;8.13;;
5295;SDS011;2670;42.720;23.336;2022-12-10T02:04:49;18.47;;;8.10;;
5295;SDS011;2670;42.720;23.336;2022-12-10T02:07:26;15.40;;;7.47;;
5295;SDS011;2670;42.720;23.336;2022-12-10T02:10:02;20.00;;;8.10;;
5295;SDS011;2670;42.720;23.336;2022-12-10T02:12:40;18.73;;;7.87;;
5295;SDS011;2670;42.720;23.336;2022-12-10T02:15:15;17.90;;;8.20;;
5295;SDS011;2670;42.720;23.336;2022-12-10T02:17:45;19.60;;;8.10;;
5295;SDS011;2670;42.720;23.336;2022-12-10T02:20:15;23.50;;;9.13;;
5295;SDS011;2670;42.720;23.336;2022-12-10T02:22:46;20.10;;;8.67;;
5295;SDS011;2670;42.720;23.336;2022-12-10T02:25:17;19.03;;;8.17;;
5295;SDS011;2670;42.720;23.336;2022-12-10T02:27:50;22.20;;;9.30;;
5295;SDS011;2670;42.720;23.336;2022-12-10T02:30:23;16.37;;;7.87;;
5295;SDS011;2670;42.720;23.336;2022-12-10T02:32:50;18.07;;;8.17;;
5295;SDS011;2670;42.720;23.336;2022-12-10T02:35:18;21.30;;;9.17;;
5295;SDS011;2670;42.720;23.336;2022-12-10T02:37:49;21.70;;;8.63;;
5295;SDS011;2670;42.720;23.336;2022-12-10T02:40:19;23.57;;;8.63;;
5295;SDS011;2670;42.720;23.336;2022-12-10T02:42:49;21.90;;;9.87;;
5295;SDS011;2670;42.720;23.336;2022-12-10T02:45:17;28.97;;;10.80;;
5295;SDS011;2670;42.720;23.336;2022-12-10T02:47:48;34.70;;;12.70;;
5295;SDS011;2670;42.720;23.336;2022-12-10T02:50:15;22.37;;;11.40;;
5295;SDS011;2670;42.720;23.336;2022-12-10T02:52:46;22.77;;;10.00;;
5295;SDS011;2670;42.720;23.336;2022-12-10T02:55:13;19.70;;;8.90;;
5295;SDS011;2670;42.720;23.336;2022-12-10T02:57:42;18.20;;;8.40;;
5295;SDS011;2670;42.720;23.336;2022-12-10T03:00:19;15.17;;;8.80;;
5295;SDS011;2670;42.720;23.336;2022-12-10T03:02:57;19.77;;;10.00;;
5295;SDS011;2670;42.720;23.336;2022-12-10T03:05:40;25.20;;;9.20;;
5295;SDS011;2670;42.720;23.336;2022-12-10T03:08:13;20.37;;;10.20;;
5295;SDS011;2670;42.720;23.336;2022-12-10T03:10:44;23.93;;;9.30;;
5295;SDS011;2670;42.720;23.336;2022-12-10T03:13:18;18.77;;;10.70;;
5295;SDS011;2670;42.720;23.336;2022-12-10T03:15:48;23.43;;;10.80;;
5295;SDS011;2670;42.720;23.336;2022-12-10T03:18:18;17.37;;;10.50;;
5295;SDS011;2670;42.720;23.336;2022-12-10T03:20:50;27.40;;;10.50;;
5295;SDS011;2670;42.720;23.336;2022-12-10T03:23:19;18.93;;;10.40;;
5295;SDS011;2670;42.720;23.336;2022-12-10T03:25:46;24.63;;;11.43;;
5295;SDS011;2670;42.720;23.336;2022-12-10T03:28:15;28.80;;;11.50;;
5295;SDS011;2670;42.720;23.336;2022-12-10T03:30:44;20.97;;;10.00;;
5295;SDS011;2670;42.720;23.336;2022-12-10T03:33:14;25.00;;;10.80;;
5295;SDS011;2670;42.720;23.336;2022-12-10T03:35:43;18.33;;;9.70;;
5295;SDS011;2670;42.720;23.336;2022-12-10T03:38:11;24.10;;;9.70;;
5295;SDS011;2670;42.720;23.336;2022-12-10T03:40:38;26.70;;;10.33;;
5295;SDS011;2670;42.720;23.336;2022-12-10T03:43:17;30.07;;;14.53;;
5295;SDS011;2670;42.720;23.336;2022-12-10T03:45:44;40.00;;;17.10;;
5295;SDS011;2670;42.720;23.336;2022-12-10T03:48:10;32.73;;;16.50;;
5295;SDS011;2670;42.720;23.336;2022-12-10T03:50:37;32.87;;;12.00;;
5295;SDS011;2670;42.720;23.336;2022-12-10T03:53:05;25.03;;;11.90;;
5295;SDS011;2670;42.720;23.336;2022-12-10T03:55:32;33.40;;;12.70;;
5295;SDS011;2670;42.720;23.336;2022-12-10T03:57:59;33.20;;;11.80;;
5295;SDS011;2670;42.720;23.336;2022-12-10T04:00:25;22.63;;;11.67;;
5295;SDS011;2670;42.720;23.336;2022-12-10T04:02:52;27.00;;;12.10;;
5295;SDS011;2670;42.720;23.336;2022-12-10T04:05:19;21.70;;;11.00;;
5295;SDS011;2670;42.720;23.336;2022-12-10T04:07:45;21.40;;;11.10;;
5295;SDS011;2670;42.720;23.336;2022-12-10T04:10:14;23.33;;;11.47;;
5295;SDS011;2670;42.720;23.336;2022-12-10T04:12:40;18.70;;;10.40;;
5295;SDS011;2670;42.720;23.336;2022-12-10T04:15:07;22.27;;;12.53;;
5295;SDS011;2670;42.720;23.336;2022-12-10T04:17:52;23.93;;;12.20;;
5295;SDS011;2670;42.720;23.336;2022-12-10T04:20:18;23.37;;;11.30;;
5295;SDS011;2670;42.720;23.336;2022-12-10T04:22:59;20.60;;;10.43;;
5295;SDS011;2670;42.720;23.336;2022-12-10T04:25:45;22.43;;;11.63;;
5295;SDS011;2670;42.720;23.336;2022-12-10T04:28:29;25.10;;;11.17;;
5295;SDS011;2670;42.720;23.336;2022-12-10T04:30:56;16.57;;;9.17;;
5295;SDS011;2670;42.720;23.336;2022-12-10T04:33:22;23.07;;;9.10;;
5295;SDS011;2670;42.720;23.336;2022-12-10T04:35:49;25.33;;;9.83;;
5295;SDS011;2670;42.720;23.336;2022-12-10T04:38:16;20.73;;;7.80;;
5295;SDS011;2670;42.720;23.336;2022-12-10T04:40:42;19.40;;;7.93;;
5295;SDS011;2670;42.720;23.336;2022-12-10T04:43:10;19.77;;;7.10;;
5295;SDS011;2670;42.720;23.336;2022-12-10T04:45:37;15.87;;;8.10;;
5295;SDS011;2670;42.720;23.336;2022-12-10T04:48:04;19.07;;;8.33;;
5295;SDS011;2670;42.720;23.336;2022-12-10T04:50:31;19.50;;;10.20;;
5295;SDS011;2670;42.720;23.336;2022-12-10T04:52:57;25.00;;;11.20;;
5295;SDS011;2670;42.720;23.336;2022-12-10T04:55:24;31.03;;;13.47;;
5295;SDS011;2670;42.720;23.336;2022-12-10T04:57:51;28.00;;;12.07;;
5295;SDS011;2670;42.720;23.336;2022-12-10T05:00:19;33.17;;;13.07;;
5295;SDS011;2670;42.720;23.336;2022-12-10T05:02:47;20.03;;;10.30;;
5295;SDS011;2670;42.720;23.336;2022-12-10T05:05:15;32.53;;;10.30;;
5295;SDS011;2670;42.720;23.336;2022-12-10T05:07:41;23.43;;;11.53;;
5295;SDS011;2670;42.720;23.336;2022-12-10T05:10:08;29.50;;;11.10;;
5295;SDS011;2670;42.720;23.336;2022-12-10T05:12:35;26.37;;;12.50;;
5295;SDS011;2670;42.720;23.336;2022-12-10T05:15:02;23.60;;;10.97;;
5295;SDS011;2670;42.720;23.336;2022-12-10T05:17:30;23.83;;;10.90;;
5295;SDS011;2670;42.720;23.336;2022-12-10T05:19:57;23.77;;;11.13;;
5295;SDS011;2670;42.720;23.336;2022-12-10T05:22:23;22.20;;;11.80;;
5295;SDS011;2670;42.720;23.336;2022-12-10T05:25:08;30.00;;;12.00;;
5295;SDS011;2670;42.720;23.336;2022-12-10T05:27:34;25.40;;;12.30;;
5295;SDS011;2670;42.720;23.336;2022-12-10T05:30:01;26.97;;;13.17;;
5295;SDS011;2670;42.720;23.336;2022-12-10T05:32:29;25.20;;;13.10;;
5295;SDS011;2670;42.720;23.336;2022-12-10T05:34:56;25.90;;;14.70;;
5295;SDS011;2670;42.720;23.336;2022-12-10T05:37:22;40.17;;;19.03;;
5295;SDS011;2670;42.720;23.336;2022-12-10T05:39:49;31.77;;;17.60;;
5295;SDS011;2670;42.720;23.336;2022-12-10T05:42:16;31.70;;;16.83;;
5295;SDS011;2670;42.720;23.336;2022-12-10T05:44:43;28.33;;;15.50;;
5295;SDS011;2670;42.720;23.336;2022-12-10T05:47:09;27.30;;;14.90;;
5295;SDS011;2670;42.720;23.336;2022-12-10T05:49:37;29.77;;;14.87;;
5295;SDS011;2670;42.720;23.336;2022-12-10T05:52:04;30.10;;;12.93;;
5295;SDS011;2670;42.720;23.336;2022-12-10T05:54:31;28.00;;;13.50;;
5295;SDS011;2670;42.720;23.336;2022-12-10T05:56:58;26.13;;;13.57;;
5295;SDS011;2670;42.720;23.336;2022-12-10T05:59:25;22.83;;;14.90;;
5295;SDS011;2670;42.720;23.336;2022-12-10T06:01:52;30.40;;;13.90;;
5295;SDS011;2670;42.720;23.336;2022-12-10T06:04:19;24.50;;;13.97;;
5295;SDS011;2670;42.720;23.336;2022-12-10T06:06:47;29.93;;;15.90;;
5295;SDS011;2670;42.720;23.336;2022-12-10T06:09:15;41.43;;;19.50;;
5295;SDS011;2670;42.720;23.336;2022-12-10T06:11:42;29.63;;;16.00;;
5295;SDS011;2670;42.720;23.336;2022-12-10T06:14:08;30.50;;;15.97;;
5295;SDS011;2670;42.720;23.336;2022-12-10T06:16:35;24.10;;;14.90;;
5295;SDS011;2670;42.720;23.336;2022-12-10T06:19:02;40.77;;;21.77;;
5295;SDS011;2670;42.720;23.336;2022-12-10T06:21:29;38.43;;;18.50;;
5295;SDS011;2670;42.720;23.336;2022-12-10T06:23:57;41.70;;;18.83;;
5295;SDS011;2670;42.720;23.336;2022-12-10T06:26:24;30.17;;;16.33;;
5295;SDS011;2670;42.720;23.336;2022-12-10T06:28:52;22.13;;;13.57;;
5295;SDS011;2670;42.720;23.336;2022-12-10T06:31:19;33.17;;;15.73;;
5295;SDS011;2670;42.720;23.336;2022-12-10T06:33:47;26.90;;;16.90;;
5295;SDS011;2670;42.720;23.336;2022-12-10T06:36:15;33.93;;;16.50;;
5295;SDS011;2670;42.720;23.336;2022-12-10T06:38:42;31.40;;;16.60;;
5295;SDS011;2670;42.720;23.336;2022-12-10T06:41:11;29.10;;;18.30;;
5295;SDS011;2670;42.720;23.336;2022-12-10T06:43:39;28.50;;;16.90;;
5295;SDS011;2670;42.720;23.336;2022-12-10T06:46:07;25.07;;;14.90;;
5295;SDS011;2670;42.720;23.336;2022-12-10T06:48:34;35.30;;;19.90;;
5295;SDS011;2670;42.720;23.336;2022-12-10T06:51:01;35.50;;;21.87;;
5295;SDS011;2670;42.720;23.336;2022-12-10T06:53:28;36.33;;;21.27;;
5295;SDS011;2670;42.720;23.336;2022-12-10T06:55:57;48.50;;;30.00;;
5295;SDS011;2670;42.720;23.336;2022-12-10T06:58:25;52.57;;;28.33;;
5295;SDS011;2670;42.720;23.336;2022-12-10T07:00:53;48.60;;;30.17;;
5295;SDS011;2670;42.720;23.336;2022-12-10T07:03:20;65.30;;;34.90;;
5295;SDS011;2670;42.720;23.336;2022-12-10T07:05:46;59.33;;;29.23;;
5295;SDS011;2670;42.720;23.336;2022-12-10T07:08:13;37.40;;;20.80;;
5295;SDS011;2670;42.720;23.336;2022-12-10T07:10:42;35.90;;;19.90;;
5295;SDS011;2670;42.720;23.336;2022-12-10T07:13:09;42.67;;;23.20;;
5295;SDS011;2670;42.720;23.336;2022-12-10T07:15:37;50.80;;;26.40;;
5295;SDS011;2670;42.720;23.336;2022-12-10T07:18:04;47.53;;;28.40;;
5295;SDS011;2670;42.720;23.336;2022-12-10T07:20:31;51.67;;;26.90;;
5295;SDS011;2670;42.720;23.336;2022-12-10T07:22:58;59.20;;;31.10;;
5295;SDS011;2670;42.720;23.336;2022-12-10T07:25:25;48.93;;;27.60;;
5295;SDS011;2670;42.720;23.336;2022-12-10T07:27:52;55.50;;;30.60;;
5295;SDS011;2670;42.720;23.336;2022-12-10T07:30:19;65.03;;;32.40;;
5295;SDS011;2670;42.720;23.336;2022-12-10T07:32:47;70.43;;;36.53;;
5295;SDS011;2670;42.720;23.336;2022-12-10T07:35:14;87.13;;;46.27;;
5295;SDS011;2670;42.720;23.336;2022-12-10T07:37:40;65.43;;;33.70;;
5295;SDS011;2670;42.720;23.336;2022-12-10T07:40:08;83.10;;;35.10;;
5295;SDS011;2670;42.720;23.336;2022-12-10T07:42:35;82.20;;;38.97;;
5295;SDS011;2670;42.720;23.336;2022-12-10T07:45:02;98.17;;;45.07;;
5295;SDS011;2670;42.720;23.336;2022-12-10T07:47:29;75.20;;;37.43;;
5295;SDS011;2670;42.720;23.336;2022-12-10T07:49:57;77.63;;;42.93;;
5295;SDS011;2670;42.720;23.336;2022-12-10T07:52:24;85.50;;;48.20;;
5295;SDS011;2670;42.720;23.336;2022-12-10T07:54:51;88.50;;;51.73;;
5295;SDS011;2670;42.720;23.336;2022-12-10T07:57:17;98.70;;;56.37;;
5295;SDS011;2670;42.720;23.336;2022-12-10T07:59:44;83.97;;;52.63;;
5295;SDS011;2670;42.720;23.336;2022-12-10T08:02:11;65.03;;;36.70;;
5295;SDS011;2670;42.720;23.336;2022-12-10T08:04:38;54.27;;;28.10;;
5295;SDS011;2670;42.720;23.336;2022-12-10T08:07:06;39.97;;;23.37;;
5295;SDS011;2670;42.720;23.336;2022-12-10T08:09:33;48.67;;;25.23;;
5295;SDS011;2670;42.720;23.336;2022-12-10T08:12:00;38.40;;;20.90;;
5295;SDS011;2670;42.720;23.336;2022-12-10T08:14:26;34.63;;;19.37;;
5295;SDS011;2670;42.720;23.336;2022-12-10T08:16:53;34.93;;;15.20;;
5295;SDS011;2670;42.720;23.336;2022-12-10T08:19:20;35.73;;;14.20;;
5295;SDS011;2670;42.720;23.336;2022-12-10T08:21:46;34.13;;;16.77;;
5295;SDS011;2670;42.720;23.336;2022-12-10T08:24:14;25.77;;;13.70;;
5295;SDS011;2670;42.720;23.336;2022-12-10T08:26:41;37.90;;;14.10;;
5295;SDS011;2670;42.720;23.336;2022-12-10T08:29:08;27.10;;;13.63;;
5295;SDS011;2670;42.720;23.336;2022-12-10T08:31:35;36.80;;;18.50;;
5295;SDS011;2670;42.720;23.336;2022-12-10T08:34:01;28.60;;;16.90;;
5295;SDS011;2670;42.720;23.336;2022-12-10T08:36:29;31.67;;;15.47;;
5295;SDS011;2670;42.720;23.336;2022-12-10T08:38:56;33.00;;;17.87;;
5295;SDS011;2670;42.720;23.336;2022-12-10T08:41:24;42.83;;;21.63;;
5295;SDS011;2670;42.720;23.336;2022-12-10T08:43:51;45.50;;;23.43;;
5295;SDS011;2670;42.720;23.336;2022-12-10T08:46:18;29.83;;;14.90;;
5295;SDS011;2670;42.720;23.336;2022-12-10T08:48:45;19.17;;;11.73;;
5295;SDS011;2670;42.720;23.336;2022-12-10T08:51:13;30.17;;;13.80;;
5295;SDS011;2670;42.720;23.336;2022-12-10T08:53:42;26.53;;;14.90;;
5295;SDS011;2670;42.720;23.336;2022-12-10T08:56:09;28.83;;;14.40;;
5295;SDS011;2670;42.720;23.336;2022-12-10T08:58:37;25.83;;;15.17;;
5295;SDS011;2670;42.720;23.336;2022-12-10T09:01:05;25.23;;;15.80;;
5295;SDS011;2670;42.720;23.336;2022-12-10T09:03:33;34.07;;;17.63;;
5295;SDS011;2670;42.720;23.336;2022-12-10T09:06:01;23.50;;;11.50;;
5295;SDS011;2670;42.720;23.336;2022-12-10T09:08:31;22.53;;;12.93;;
5295;SDS011;2670;42.720;23.336;2022-12-10T09:11:03;24.77;;;12.90;;
5295;SDS011;2670;42.720;23.336;2022-12-10T09:13:31;24.13;;;13.00;;
5295;SDS011;2670;42.720;23.336;2022-12-10T09:15:59;26.73;;;14.23;;
5295;SDS011;2670;42.720;23.336;2022-12-10T09:18:26;18.67;;;10.23;;
5295;SDS011;2670;42.720;23.336;2022-12-10T09:20:53;14.23;;;10.43;;
5295;SDS011;2670;42.720;23.336;2022-12-10T09:23:20;21.37;;;11.63;;
5295;SDS011;2670;42.720;23.336;2022-12-10T09:25:47;27.93;;;13.53;;
5295;SDS011;2670;42.720;23.336;2022-12-10T09:28:13;14.27;;;8.70;;
5295;SDS011;2670;42.720;23.336;2022-12-10T09:30:40;19.30;;;8.50;;
5295;SDS011;2670;42.720;23.336;2022-12-10T09:33:08;13.07;;;7.70;;
5295;SDS011;2670;42.720;23.336;2022-12-10T09:35:38;16.77;;;9.00;;
5295;SDS011;2670;42.720;23.336;2022-12-10T09:38:06;39.13;;;16.13;;
5295;SDS011;2670;42.720;23.336;2022-12-10T09:40:35;21.60;;;9.20;;
5295;SDS011;2670;42.720;23.336;2022-12-10T09:43:10;50.13;;;18.73;;
5295;SDS011;2670;42.720;23.336;2022-12-10T09:45:43;22.43;;;12.17;;
5295;SDS011;2670;42.720;23.336;2022-12-10T09:48:21;17.70;;;9.57;;
5295;SDS011;2670;42.720;23.336;2022-12-10T09:50:55;17.80;;;8.97;;
5295;SDS011;2670;42.720;23.336;2022-12-10T09:53:29;12.10;;;6.23;;
5295;SDS011;2670;42.720;23.336;2022-12-10T09:55:57;13.60;;;7.53;;
5295;SDS011;2670;42.720;23.336;2022-12-10T09:58:25;17.33;;;6.53;;
5295;SDS011;2670;42.720;23.336;2022-12-10T10:00:55;18.80;;;6.90;;
5295;SDS011;2670;42.720;23.336;2022-12-10T10:03:26;15.83;;;6.93;;
5295;SDS011;2670;42.720;23.336;2022-12-10T10:05:55;17.07;;;7.57;;
5295;SDS011;2670;42.720;23.336;2022-12-10T10:08:23;10.83;;;5.90;;
5295;SDS011;2670;42.720;23.336;2022-12-10T10:10:55;15.87;;;8.50;;
5295;SDS011;2670;42.720;23.336;2022-12-10T10:13:26;10.03;;;6.23;;
5295;SDS011;2670;42.720;23.336;2022-12-10T10:15:57;16.23;;;6.70;;
5295;SDS011;2670;42.720;23.336;2022-12-10T10:18:39;12.90;;;7.17;;
5295;SDS011;2670;42.720;23.336;2022-12-10T10:21:11;8.90;;;6.50;;
5295;SDS011;2670;42.720;23.336;2022-12-10T10:23:43;12.47;;;5.90;;
5295;SDS011;2670;42.720;23.336;2022-12-10T10:26:11;10.73;;;5.37;;
5295;SDS011;2670;42.720;23.336;2022-12-10T10:28:39;19.90;;;7.53;;
5295;SDS011;2670;42.720;23.336;2022-12-10T10:31:12;14.37;;;7.30;;
5295;SDS011;2670;42.720;23.336;2022-12-10T10:33:50;16.63;;;7.00;;
5295;SDS011;2670;42.720;23.336;2022-12-10T10:36:25;22.73;;;9.77;;
5295;SDS011;2670;42.720;23.336;2022-12-10T10:38:53;39.00;;;15.90;;
5295;SDS011;2670;42.720;23.336;2022-12-10T10:41:20;21.43;;;9.83;;
5295;SDS011;2670;42.720;23.336;2022-12-10T10:43:49;9.67;;;5.90;;
5295;SDS011;2670;42.720;23.336;2022-12-10T10:46:25;10.20;;;6.77;;
5295;SDS011;2670;42.720;23.336;2022-12-10T10:48:53;18.67;;;10.87;;
5295;SDS011;2670;42.720;23.336;2022-12-10T10:51:41;11.40;;;7.00;;
5295;SDS011;2670;42.720;23.336;2022-12-10T10:54:08;18.90;;;8.00;;
5295;SDS011;2670;42.720;23.336;2022-12-10T10:56:38;10.97;;;6.40;;
5295;SDS011;2670;42.720;23.336;2022-12-10T10:59:18;11.13;;;5.40;;
5295;SDS011;2670;42.720;23.336;2022-12-10T11:01:58;10.60;;;6.70;;
5295;SDS011;2670;42.720;23.336;2022-12-10T11:04:31;9.60;;;6.13;;
5295;SDS011;2670;42.720;23.336;2022-12-10T11:07:04;20.73;;;11.27;;
5295;SDS011;2670;42.720;23.336;2022-12-10T11:09:32;25.63;;;9.73;;
5295;SDS011;2670;42.720;23.336;2022-12-10T11:12:03;16.77;;;6.80;;
5295;SDS011;2670;42.720;23.336;2022-12-10T11:14:32;21.13;;;8.13;;
5295;SDS011;2670;42.720;23.336;2022-12-10T11:17:02;10.37;;;6.70;;
5295;SDS011;2670;42.720;23.336;2022-12-10T11:19:53;29.40;;;10.50;;
5295;SDS011;2670;42.720;23.336;2022-12-10T11:22:22;18.57;;;9.80;;
5295;SDS011;2670;42.720;23.336;2022-12-10T11:24:50;15.53;;;8.00;;
5295;SDS011;2670;42.720;23.336;2022-12-10T11:27:18;9.13;;;5.90;;
5295;SDS011;2670;42.720;23.336;2022-12-10T11:29:59;15.97;;;8.23;;
5295;SDS011;2670;42.720;23.336;2022-12-10T11:32:39;10.90;;;6.73;;
5295;SDS011;2670;42.720;23.336;2022-12-10T11:35:30;13.40;;;6.73;;
5295;SDS011;2670;42.720;23.336;2022-12-10T11:38:09;11.73;;;6.57;;
5295;SDS011;2670;42.720;23.336;2022-12-10T11:40:47;20.23;;;8.37;;
5295;SDS011;2670;42.720;23.336;2022-12-10T11:43:25;13.73;;;7.57;;
5295;SDS011;2670;42.720;23.336;2022-12-10T11:46:07;13.63;;;7.17;;
5295;SDS011;2670;42.720;23.336;2022-12-10T11:48:45;22.60;;;11.20;;
5295;SDS011;2670;42.720;23.336;2022-12-10T11:51:24;18.40;;;7.80;;
5295;SDS011;2670;42.720;23.336;2022-12-10T11:54:02;12.93;;;6.87;;
5295;SDS011;2670;42.720;23.336;2022-12-10T11:56:39;12.40;;;7.87;;
5295;SDS011;2670;42.720;23.336;2022-12-10T11:59:13;13.07;;;7.30;;
5295;SDS011;2670;42.720;23.336;2022-12-10T12:01:50;14.03;;;7.57;;
5295;SDS011;2670;42.720;23.336;2022-12-10T12:04:27;15.20;;;7.73;;
5295;SDS011;2670;42.720;23.336;2022-12-10T12:07:17;14.17;;;8.73;;
5295;SDS011;2670;42.720;23.336;2022-12-10T12:10:02;15.67;;;7.93;;
5295;SDS011;2670;42.720;23.336;2022-12-10T12:12:49;12.97;;;7.40;;
5295;SDS011;2670;42.720;23.336;2022-12-10T12:15:25;12.80;;;7.80;;
5295;SDS011;2670;42.720;23.336;2022-12-10T12:17:56;20.53;;;7.70;;
5295;SDS011;2670;42.720;23.336;2022-12-10T12:20:28;13.70;;;6.90;;
5295;SDS011;2670;42.720;23.336;2022-12-10T12:23:00;17.57;;;9.73;;
5295;SDS011;2670;42.720;23.336;2022-12-10T12:25:33;16.63;;;10.10;;
5295;SDS011;2670;42.720;23.336;2022-12-10T12:28:04;23.70;;;15.40;;
5295;SDS011;2670;42.720;23.336;2022-12-10T12:30:38;29.97;;;14.20;;
5295;SDS011;2670;42.720;23.336;2022-12-10T12:33:10;19.23;;;10.07;;
5295;SDS011;2670;42.720;23.336;2022-12-10T12:35:40;16.20;;;9.50;;
5295;SDS011;2670;42.720;23.336;2022-12-10T12:38:19;19.97;;;10.20;;
5295;SDS011;2670;42.720;23.336;2022-12-10T12:40:53;23.37;;;11.50;;
5295;SDS011;2670;42.720;23.336;2022-12-10T12:43:26;39.07;;;17.80;;
5295;SDS011;2670;42.720;23.336;2022-12-10T12:46:02;23.07;;;10.40;;
5295;SDS011;2670;42.720;23.336;2022-12-10T12:48:32;27.60;;;13.90;;
5295;SDS011;2670;42.720;23.336;2022-12-10T12:51:06;24.63;;;12.77;;
5295;SDS011;2670;42.720;23.336;2022-12-10T12:53:39;22.03;;;12.20;;
5295;SDS011;2670;42.720;23.336;2022-12-10T12:56:07;31.17;;;15.47;;
5295;SDS011;2670;42.720;23.336;2022-12-10T12:58:45;27.00;;;13.10;;
5295;SDS011;2670;42.720;23.336;2022-12-10T13:01:22;22.43;;;13.03;;
5295;SDS011;2670;42.720;23.336;2022-12-10T13:03:57;24.73;;;12.50;;
5295;SDS011;2670;42.720;23.336;2022-12-10T13:06:26;29.17;;;15.30;;
5295;SDS011;2670;42.720;23.336;2022-12-10T13:08:59;23.83;;;13.07;;
5295;SDS011;2670;42.720;23.336;2022-12-10T13:11:44;24.53;;;13.57;;
5295;SDS011;2670;42.720;23.336;2022-12-10T13:14:14;29.73;;;14.00;;
5295;SDS011;2670;42.720;23.336;2022-12-10T13:16:58;27.40;;;13.00;;
5295;SDS011;2670;42.720;23.336;2022-12-10T13:19:29;31.50;;;15.77;;
5295;SDS011;2670;42.720;23.336;2022-12-10T13:22:01;39.60;;;18.57;;
5295;SDS011;2670;42.720;23.336;2022-12-10T13:24:59;32.40;;;16.33;;
5295;SDS011;2670;42.720;23.336;2022-12-10T13:27:36;35.60;;;16.23;;
5295;SDS011;2670;42.720;23.336;2022-12-10T13:30:05;32.67;;;15.77;;
5295;SDS011;2670;42.720;23.336;2022-12-10T13:32:47;36.97;;;16.57;;
5295;SDS011;2670;42.720;23.336;2022-12-10T13:35:26;37.57;;;20.77;;
5295;SDS011;2670;42.720;23.336;2022-12-10T13:37:56;38.83;;;18.23;;
5295;SDS011;2670;42.720;23.336;2022-12-10T13:40:37;37.13;;;20.90;;
5295;SDS011;2670;42.720;23.336;2022-12-10T13:43:24;26.83;;;13.43;;
5295;SDS011;2670;42.720;23.336;2022-12-10T13:46:19;30.47;;;15.67;;
5295;SDS011;2670;42.720;23.336;2022-12-10T13:48:48;33.70;;;19.13;;
5295;SDS011;2670;42.720;23.336;2022-12-10T13:51:22;30.53;;;14.13;;
5295;SDS011;2670;42.720;23.336;2022-12-10T13:54:00;25.70;;;11.67;;
5295;SDS011;2670;42.720;23.336;2022-12-10T13:56:45;29.93;;;15.53;;
5295;SDS011;2670;42.720;23.336;2022-12-10T13:59:26;38.93;;;18.20;;
5295;SDS011;2670;42.720;23.336;2022-12-10T14:02:04;33.70;;;17.90;;
5295;SDS011;2670;42.720;23.336;2022-12-10T14:04:54;27.27;;;15.83;;
5295;SDS011;2670;42.720;23.336;2022-12-10T14:07:37;29.87;;;15.57;;
5295;SDS011;2670;42.720;23.336;2022-12-10T14:10:05;26.00;;;16.73;;
5295;SDS011;2670;42.720;23.336;2022-12-10T14:12:41;37.77;;;18.73;;
5295;SDS011;2670;42.720;23.336;2022-12-10T14:15:14;35.90;;;18.37;;
5295;SDS011;2670;42.720;23.336;2022-12-10T14:17:44;39.10;;;20.53;;
5295;SDS011;2670;42.720;23.336;2022-12-10T14:20:13;37.10;;;19.53;;
5295;SDS011;2670;42.720;23.336;2022-12-10T14:22:44;43.70;;;24.10;;
5295;SDS011;2670;42.720;23.336;2022-12-10T14:25:13;42.80;;;21.40;;
5295;SDS011;2670;42.720;23.336;2022-12-10T14:27:43;42.50;;;21.93;;
5295;SDS011;2670;42.720;23.336;2022-12-10T14:30:14;39.67;;;21.70;;
5295;SDS011;2670;42.720;23.336;2022-12-10T14:32:43;49.67;;;25.10;;
5295;SDS011;2670;42.720;23.336;2022-12-10T14:35:12;89.07;;;32.60;;
5295;SDS011;2670;42.720;23.336;2022-12-10T14:37:41;58.80;;;32.40;;
5295;SDS011;2670;42.720;23.336;2022-12-10T14:40:12;57.60;;;27.07;;
5295;SDS011;2670;42.720;23.336;2022-12-10T14:42:47;56.40;;;26.67;;
5295;SDS011;2670;42.720;23.336;2022-12-10T14:45:14;58.10;;;26.87;;
5295;SDS011;2670;42.720;23.336;2022-12-10T14:47:42;49.80;;;21.83;;
5295;SDS011;2670;42.720;23.336;2022-12-10T14:50:09;64.40;;;25.97;;
5295;SDS011;2670;42.720;23.336;2022-12-10T14:52:39;68.60;;;30.60;;
5295;SDS011;2670;42.720;23.336;2022-12-10T14:55:11;168.80;;;59.17;;
5295;SDS011;2670;42.720;23.336;2022-12-10T14:57:40;111.30;;;45.00;;
5295;SDS011;2670;42.720;23.336;2022-12-10T15:00:13;68.63;;;27.47;;